Airfield :
LOGIN :

Register | Disclaimer

   EN    FR    IT 

 










Legend :    VFR   Marginal VFR   IFR   Intensive IFR   Very Intensive IFR
Visi :
Ceiling :
>= 8 km
>= 3000ft
5 to 8 km
1000 to 3000 ft
1500m to 5 km
500 to 1000 ft
800 to 1500m
200 to 500 ft
< 800m
< 200 ft
Symbols :   Thunderstorms  Fog  Heavy snow  Heavy precipitations  Wind > 20 kt
SIGMETs :     Misc.  Thunderstorms  Icing  Turbulence  Mountain Waves  Volcanic Ashes







- Airport Elevation : 194 ft


EBCV - Chièvres

CURRENT METAR :
  • 221955Z AUTO 04004KT 9999 BKN056/// 15/08 Q1020 BLU

EXPIRED METARs :
  • 221925Z AUTO 06004KT 9999 BKN058/// 15/09 Q1020 BLU
  • 221855Z AUTO 03004KT 9999 SCT059/// 16/08 Q1020 BLU
  • 221825Z AUTO 02005KT 9999 SCT063/// 16/08 Q1020 BLU
  • 221755Z AUTO 05006KT 9999 BKN063/// BKN230/// 17/08 Q1020 BLU
  • 221725Z AUTO 01006KT 9999 FEW067/// BKN210/// 18/07 Q1020 BLU

TAF TAF EBCV
Valid from the 22 at 19:00 until the 23 at 07:00 UTC


221541Z 2219/2307 VRB02KT 9999 BKN060 BKN220
BECMG 2300/2302 16004KT
TEMPO 2302/2306 3000 BR BY EBWM
No reported NOTAMs for that airfield.



MET'MAP, your aeronautical weather chart ! - Copyright ORBIFLY December 2007 - Disclaimer

ORBIFLY MET'MAP TEAM :

Programming & Development : Alexandra Zaïnal
Concept & Development : Baudouin d'Aumeries
Co-Development & Prog : Marc-Olivier Méhu
Technical & hardware support : Manuel Goepfert

Contact : metmap@orbifly.com




SOURCES & CREDITS :

   NOAA